createdAt,value
2023-04-24T00:01:08.601Z,9.50
2023-04-24T00:04:15.475Z,9.40
2023-04-24T00:07:18.777Z,9.30
2023-04-24T00:10:22.168Z,9.20
2023-04-24T00:13:26.096Z,9.00
2023-04-24T00:16:30.796Z,9.10
2023-04-24T00:19:34.098Z,9.00
2023-04-24T00:22:37.309Z,9.00
2023-04-24T00:25:40.982Z,9.00
2023-04-24T00:28:44.581Z,8.90
2023-04-24T00:31:49.989Z,9.00
2023-04-24T00:34:53.282Z,8.90
2023-04-24T00:37:56.543Z,8.80
2023-04-24T00:40:59.962Z,8.70
2023-04-24T00:44:03.296Z,8.60
2023-04-24T00:47:08.271Z,8.50
2023-04-24T00:50:12.313Z,8.40
2023-04-24T00:53:16.134Z,8.30
2023-04-24T00:56:20.925Z,8.20
2023-04-24T00:59:24.248Z,8.10
2023-04-24T01:02:29.304Z,8.10
2023-04-24T01:05:33.014Z,8.00
2023-04-24T01:08:38.141Z,8.00
2023-04-24T01:11:43.721Z,7.90
2023-04-24T01:14:48.741Z,7.90
2023-04-24T01:17:54.146Z,7.80
2023-04-24T01:21:01.332Z,7.90
2023-04-24T01:24:07.414Z,7.90
2023-04-24T01:27:12.872Z,7.90
2023-04-24T01:30:16.791Z,8.10
2023-04-24T01:33:21.729Z,8.10
2023-04-24T01:36:27.286Z,8.30
2023-04-24T01:39:32.205Z,8.30
2023-04-24T01:42:36.273Z,8.50
2023-04-24T01:45:39.496Z,8.50
2023-04-24T01:48:43.413Z,8.90
2023-04-24T01:51:47.051Z,8.90
2023-04-24T01:54:51.673Z,8.90
2023-04-24T01:57:57.334Z,8.70
2023-04-24T02:01:16.900Z,8.80
2023-04-24T02:04:20.879Z,8.80
2023-04-24T02:07:24.758Z,8.70
2023-04-24T02:10:29.472Z,8.70
2023-04-24T02:13:33.243Z,8.60
2023-04-24T02:16:37.799Z,8.60
2023-04-24T02:19:41.378Z,8.70
2023-04-24T02:22:44.630Z,8.70
2023-04-24T02:25:49.728Z,8.80
2023-04-24T02:28:54.719Z,8.90
2023-04-24T02:31:58.115Z,8.90
2023-04-24T02:35:02.385Z,8.80
2023-04-24T02:38:06.384Z,8.80
2023-04-24T02:41:12.043Z,8.70
2023-04-24T02:44:15.475Z,8.80
2023-04-24T02:47:19.261Z,8.70
2023-04-24T02:50:23.047Z,8.70
2023-04-24T02:53:26.262Z,8.80
2023-04-24T02:56:30.825Z,8.70
2023-04-24T02:59:35.845Z,8.60
2023-04-24T03:02:39.219Z,8.20
2023-04-24T03:05:42.896Z,8.40
2023-04-24T03:08:46.138Z,8.30
2023-04-24T03:11:50.998Z,8.40
2023-04-24T03:14:54.293Z,8.50
2023-04-24T03:17:57.752Z,8.60
2023-04-24T03:21:01.050Z,8.60
2023-04-24T03:24:04.758Z,8.60
2023-04-24T03:27:09.472Z,8.60
2023-04-24T03:30:28.752Z,8.70
2023-04-24T03:33:37.009Z,8.80
2023-04-24T03:36:40.333Z,8.90
2023-04-24T03:39:45.360Z,8.90
2023-04-24T03:42:51.320Z,8.80
2023-04-24T03:45:55.419Z,8.80
2023-04-24T03:48:58.861Z,8.80
2023-04-24T03:52:06.385Z,8.80
2023-04-24T03:55:14.283Z,8.80
2023-04-24T03:58:23.467Z,8.80
2023-04-24T04:01:27.138Z,8.70
2023-04-24T04:04:36.603Z,8.80
2023-04-24T04:07:39.976Z,8.80
2023-04-24T04:10:43.412Z,8.80
2023-04-24T04:13:48.996Z,8.80
2023-04-24T04:16:55.158Z,8.70
2023-04-24T04:19:58.546Z,8.80
2023-04-24T04:23:01.829Z,8.80
2023-04-24T04:26:26.573Z,8.90
2023-04-24T04:29:58.514Z,8.90
2023-04-24T04:33:02.298Z,9.10
2023-04-24T04:36:06.423Z,9.30
2023-04-24T04:39:12.588Z,9.40
2023-04-24T04:42:27.943Z,9.60
2023-04-24T04:45:33.764Z,9.80
2023-04-24T04:49:12.567Z,10.00
2023-04-24T04:52:18.026Z,10.30
2023-04-24T04:55:23.684Z,10.50
2023-04-24T04:58:50.230Z,10.70
2023-04-24T05:01:56.343Z,10.80
2023-04-24T05:05:00.631Z,10.80
2023-04-24T05:08:05.706Z,10.90
2023-04-24T05:11:10.979Z,11.00
2023-04-24T05:14:16.166Z,11.10
2023-04-24T05:17:21.650Z,11.10
2023-04-24T05:20:25.148Z,11.20
2023-04-24T05:23:28.682Z,11.30
2023-04-24T05:26:33.802Z,11.40
2023-04-24T05:29:37.857Z,11.50
2023-04-24T05:32:43.495Z,11.70
2023-04-24T05:35:47.773Z,11.90
2023-04-24T05:38:51.297Z,12.00
2023-04-24T05:41:54.626Z,12.10
2023-04-24T05:44:58.109Z,12.20
2023-04-24T05:48:03.103Z,12.30
2023-04-24T05:51:06.483Z,12.40
2023-04-24T05:54:09.845Z,12.60
2023-04-24T05:57:13.174Z,12.60
2023-04-24T06:00:30.321Z,12.80
2023-04-24T06:03:43.460Z,12.90
2023-04-24T06:06:46.964Z,13.00
2023-04-24T06:09:50.532Z,13.10
2023-04-24T06:12:57.163Z,13.30
2023-04-24T06:16:01.338Z,13.30
2023-04-24T06:19:11.464Z,13.40
2023-04-24T06:22:14.722Z,13.50
2023-04-24T06:25:18.569Z,13.50
2023-04-24T06:28:22.670Z,13.60
2023-04-24T06:31:26.178Z,13.70
2023-04-24T06:34:33.652Z,13.80
2023-04-24T06:37:36.962Z,13.80
2023-04-24T06:40:40.290Z,13.90
2023-04-24T06:43:43.546Z,14.00
2023-04-24T06:46:46.901Z,14.20
2023-04-24T06:49:51.958Z,14.20
2023-04-24T06:52:55.225Z,14.40
2023-04-24T06:55:58.527Z,14.50
2023-04-24T06:59:01.775Z,14.60
2023-04-24T07:02:05.139Z,14.60
2023-04-24T07:05:10.280Z,14.80
2023-04-24T07:08:13.812Z,15.00
2023-04-24T07:11:17.081Z,15.00
2023-04-24T07:14:20.581Z,15.10
2023-04-24T07:17:23.826Z,15.10
2023-04-24T07:20:28.415Z,15.00
2023-04-24T07:23:31.729Z,15.20
2023-04-24T07:26:34.921Z,15.30
2023-04-24T07:29:38.131Z,15.40
2023-04-24T07:32:41.436Z,15.50
2023-04-24T07:35:46.309Z,15.50
2023-04-24T07:38:49.684Z,15.70
2023-04-24T07:41:52.933Z,15.90
2023-04-24T07:44:56.135Z,16.10
2023-04-24T07:47:59.605Z,16.10
2023-04-24T07:51:04.362Z,16.30
2023-04-24T07:54:08.010Z,16.40
2023-04-24T07:57:11.250Z,16.60
2023-04-24T08:00:15.429Z,16.80
2023-04-24T08:03:21.044Z,16.80
2023-04-24T08:06:28.893Z,16.90
2023-04-24T08:09:32.192Z,16.80
2023-04-24T08:12:35.571Z,16.80
2023-04-24T08:15:39.394Z,16.90
2023-04-24T08:18:42.707Z,17.10
2023-04-24T08:21:47.562Z,17.20
2023-04-24T08:24:50.886Z,17.50
2023-04-24T08:27:54.230Z,17.70
2023-04-24T08:30:57.430Z,17.60
2023-04-24T08:34:01.077Z,17.60
2023-04-24T08:37:05.798Z,17.70
2023-04-24T08:40:15.103Z,18.00
2023-04-24T08:43:19.215Z,18.20
2023-04-24T08:46:23.465Z,18.20
2023-04-24T08:49:27.589Z,18.40
2023-04-24T08:52:32.812Z,18.20
2023-04-24T08:55:36.653Z,18.10
2023-04-24T08:58:40.966Z,18.20
2023-04-24T09:01:47.333Z,18.30
2023-04-24T09:04:51.984Z,18.50
2023-04-24T09:07:58.820Z,18.50
2023-04-24T09:11:03.832Z,18.60
2023-04-24T09:14:07.336Z,18.50
2023-04-24T09:17:10.889Z,18.80
2023-04-24T09:20:14.186Z,18.90
2023-04-24T09:23:22.051Z,18.90
2023-04-24T09:26:26.167Z,19.00
2023-04-24T09:29:29.773Z,18.90
2023-04-24T09:32:33.022Z,19.40
2023-04-24T09:35:36.350Z,19.30
2023-04-24T09:38:41.213Z,19.20
2023-04-24T09:41:47.683Z,19.50
2023-04-24T09:44:58.909Z,19.40
2023-04-24T09:48:11.172Z,19.50
2023-04-24T09:51:16.240Z,19.90
2023-04-24T09:54:22.364Z,20.00
2023-04-24T09:57:25.946Z,20.50
2023-04-24T10:00:31.033Z,20.20
2023-04-24T10:03:35.749Z,20.50
2023-04-24T10:06:40.579Z,20.40
2023-04-24T10:09:45.975Z,20.60
2023-04-24T10:12:49.714Z,20.90
2023-04-24T10:15:53.526Z,20.70
2023-04-24T10:18:57.940Z,20.40
2023-04-24T10:22:03.167Z,20.80
2023-04-24T10:25:09.582Z,21.60
2023-04-24T10:28:13.899Z,22.20
2023-04-24T10:31:17.520Z,21.30
2023-04-24T10:34:24.094Z,20.90
2023-04-24T10:37:29.088Z,21.30
2023-04-24T10:40:35.725Z,21.80
2023-04-24T10:43:41.602Z,22.30
2023-04-24T10:46:47.042Z,22.80
2023-04-24T10:49:53.824Z,22.10
2023-04-24T10:53:08.112Z,22.60
2023-04-24T10:56:14.391Z,22.30
2023-04-24T10:59:26.785Z,22.30
2023-04-24T11:02:39.683Z,21.80
2023-04-24T11:05:58.482Z,22.40
2023-04-24T11:09:06.350Z,22.20
2023-04-24T11:12:14.909Z,21.80
2023-04-24T11:15:20.865Z,21.70
2023-04-24T11:18:25.600Z,22.60
2023-04-24T11:21:34.084Z,22.90
2023-04-24T11:24:41.756Z,22.90
2023-04-24T11:28:07.035Z,23.10
2023-04-24T11:31:38.414Z,23.30
2023-04-24T11:34:42.384Z,23.80
2023-04-24T11:38:07.949Z,23.80
2023-04-24T11:41:13.490Z,23.90
2023-04-24T11:44:24.392Z,24.60
2023-04-24T11:47:32.053Z,24.70
2023-04-24T11:50:35.341Z,24.10
2023-04-24T11:53:39.193Z,24.50
2023-04-24T11:56:48.329Z,24.50
2023-04-24T11:59:53.219Z,25.50
2023-04-24T12:03:08.195Z,25.80
2023-04-24T12:06:14.930Z,26.20
2023-04-24T12:09:18.790Z,25.90
2023-04-24T12:12:22.233Z,26.10
2023-04-24T12:15:27.494Z,25.90
2023-04-24T12:18:30.799Z,25.10
2023-04-24T12:21:34.075Z,24.60
2023-04-24T12:24:37.444Z,24.60
2023-04-24T12:27:40.705Z,24.60
2023-04-24T12:30:47.150Z,25.40
2023-04-24T12:33:50.562Z,26.50
2023-04-24T12:36:53.946Z,26.60
2023-04-24T12:40:06.041Z,26.10
2023-04-24T12:43:16.721Z,25.40
2023-04-24T12:46:22.819Z,25.70
2023-04-24T12:49:26.243Z,26.30
2023-04-24T12:52:50.905Z,26.10
2023-04-24T12:55:54.411Z,23.70
2023-04-24T12:59:00.759Z,23.40
2023-04-24T13:02:05.492Z,24.10
2023-04-24T13:05:09.451Z,25.30
2023-04-24T13:08:13.784Z,25.00
2023-04-24T13:11:17.266Z,25.60
2023-04-24T13:14:20.630Z,25.50
2023-04-24T13:17:25.634Z,25.50
2023-04-24T13:20:29.157Z,25.40
2023-04-24T13:23:35.781Z,25.20
2023-04-24T13:26:39.187Z,25.00
2023-04-24T13:29:42.456Z,24.90
2023-04-24T13:32:47.196Z,24.70
2023-04-24T13:35:50.377Z,25.20
2023-04-24T13:38:53.725Z,25.00
2023-04-24T13:41:57.452Z,23.80
2023-04-24T13:45:03.896Z,23.70
2023-04-24T13:48:16.398Z,24.00
2023-04-24T13:51:19.910Z,25.00
2023-04-24T13:54:24.472Z,25.20
2023-04-24T13:57:29.384Z,25.70
2023-04-24T14:00:32.885Z,26.10
2023-04-24T14:03:40.028Z,26.80
2023-04-24T14:06:43.462Z,27.10
2023-04-24T14:09:49.110Z,27.30
2023-04-24T14:12:54.042Z,26.20
2023-04-24T14:15:57.470Z,26.20
2023-04-24T14:19:04.311Z,25.70
2023-04-24T14:22:07.766Z,26.30
2023-04-24T14:25:11.478Z,25.80
2023-04-24T14:28:14.713Z,25.70
2023-04-24T14:31:18.028Z,25.70
2023-04-24T14:34:22.876Z,25.70
2023-04-24T14:37:26.252Z,26.00
2023-04-24T14:40:58.346Z,26.20
2023-04-24T14:43:52.942Z,26.90
2023-04-24T14:46:56.473Z,26.40
2023-04-24T14:50:01.680Z,26.30
2023-04-24T14:53:05.075Z,26.10
2023-04-24T14:56:08.789Z,26.20
2023-04-24T14:59:12.483Z,26.00
2023-04-24T15:02:17.228Z,25.70
2023-04-24T15:05:24.035Z,25.60
2023-04-24T15:08:27.598Z,25.00
2023-04-24T15:11:31.539Z,25.30
2023-04-24T15:14:34.796Z,25.70
2023-04-24T15:17:38.035Z,25.40
2023-04-24T15:20:42.965Z,25.20
2023-04-24T15:23:46.511Z,26.00
2023-04-24T15:26:50.054Z,26.20
2023-04-24T15:29:54.569Z,26.80
2023-04-24T15:32:57.852Z,26.80
2023-04-24T15:36:02.673Z,27.50
2023-04-24T15:39:08.395Z,27.00
2023-04-24T15:42:12.872Z,26.50
2023-04-24T15:45:16.106Z,25.10
2023-04-24T15:48:20.416Z,25.40
2023-04-24T15:51:25.199Z,24.40
2023-04-24T15:54:28.375Z,24.30
2023-04-24T15:57:31.798Z,24.50
2023-04-24T16:00:35.520Z,24.10
2023-04-24T16:03:40.284Z,24.40
2023-04-24T16:06:45.189Z,24.70
2023-04-24T16:09:48.660Z,24.10
2023-04-24T16:12:54.473Z,24.30
2023-04-24T16:15:57.990Z,24.10
2023-04-24T16:19:01.415Z,23.90
2023-04-24T16:22:06.467Z,23.80
2023-04-24T16:25:11.254Z,24.20
2023-04-24T16:28:15.052Z,23.80
2023-04-24T16:31:18.332Z,22.80
2023-04-24T16:34:22.027Z,21.70
2023-04-24T16:37:27.224Z,21.00
2023-04-24T16:40:30.708Z,20.10
2023-04-24T16:43:34.267Z,20.10
2023-04-24T16:46:37.823Z,20.00
2023-04-24T16:49:42.597Z,19.80
2023-04-24T16:52:47.191Z,19.30
2023-04-24T16:55:51.303Z,18.90
2023-04-24T16:58:55.138Z,18.70
2023-04-24T17:01:58.408Z,18.40
2023-04-24T17:05:01.708Z,18.30
2023-04-24T17:08:06.596Z,18.20
2023-04-24T17:11:10.350Z,18.00
2023-04-24T17:14:13.889Z,17.90
2023-04-24T17:17:18.440Z,17.70
2023-04-24T17:20:23.920Z,17.50
2023-04-24T17:23:29.057Z,17.40
2023-04-24T17:26:32.410Z,17.30
2023-04-24T17:29:36.418Z,17.10
2023-04-24T17:32:39.924Z,16.90
2023-04-24T17:35:43.266Z,16.80
2023-04-24T17:38:48.957Z,16.70
2023-04-24T17:41:52.830Z,16.60
2023-04-24T17:44:56.185Z,16.40
2023-04-24T17:47:59.546Z,16.40
2023-04-24T17:51:03.014Z,16.40
2023-04-24T17:54:07.704Z,16.30
2023-04-24T17:57:11.353Z,16.30
2023-04-24T18:00:15.586Z,16.20
2023-04-24T18:03:19.095Z,15.90
2023-04-24T18:06:22.566Z,15.80
2023-04-24T18:09:27.172Z,15.60
2023-04-24T18:12:30.662Z,15.40
2023-04-24T18:15:35.447Z,15.40
2023-04-24T18:18:39.713Z,15.30
2023-04-24T18:21:43.128Z,15.20
2023-04-24T18:24:47.864Z,15.00
2023-04-24T18:27:51.468Z,14.80
2023-04-24T18:30:54.938Z,14.60
2023-04-24T18:33:58.587Z,14.50
2023-04-24T18:37:02.027Z,14.50
2023-04-24T18:40:08.847Z,14.70
2023-04-24T18:43:13.189Z,14.90
2023-04-24T18:46:17.027Z,14.80
2023-04-24T18:49:20.451Z,15.10
2023-04-24T18:52:24.266Z,15.20
2023-04-24T18:55:31.041Z,14.90
2023-04-24T18:58:34.291Z,14.90
2023-04-24T19:01:38.535Z,14.70
2023-04-24T19:04:41.852Z,14.60
2023-04-24T19:07:45.146Z,14.50
2023-04-24T19:10:49.783Z,14.30
2023-04-24T19:13:53.144Z,14.10
2023-04-24T19:16:56.376Z,13.90
2023-04-24T19:19:59.740Z,13.70
2023-04-24T19:23:06.381Z,13.70
2023-04-24T19:26:11.658Z,13.60
2023-04-24T19:29:15.046Z,13.50
2023-04-24T19:32:18.869Z,13.40
2023-04-24T19:35:22.848Z,13.30
2023-04-24T19:38:26.436Z,13.20
2023-04-24T19:41:31.256Z,13.10
2023-04-24T19:44:34.594Z,13.00
2023-04-24T19:47:38.136Z,12.90
2023-04-24T19:50:43.264Z,12.80
2023-04-24T19:53:49.394Z,12.80
2023-04-24T19:56:54.170Z,12.70
2023-04-24T20:00:01.001Z,12.60
2023-04-24T20:03:04.660Z,12.50
2023-04-24T20:06:08.230Z,12.50
2023-04-24T20:09:11.531Z,12.40
2023-04-24T20:12:16.421Z,12.40
2023-04-24T20:15:19.846Z,12.30
2023-04-24T20:18:23.186Z,12.30
2023-04-24T20:21:26.579Z,12.30
2023-04-24T20:24:30.120Z,12.30
2023-04-24T20:27:35.103Z,12.50
2023-04-24T20:30:39.133Z,12.50
2023-04-24T20:33:42.732Z,12.50
2023-04-24T20:36:49.455Z,12.60
2023-04-24T20:39:53.340Z,12.60
2023-04-24T20:42:58.357Z,12.70
2023-04-24T20:46:01.947Z,12.80
2023-04-24T20:49:05.317Z,12.70
2023-04-24T20:52:08.639Z,12.70
2023-04-24T20:55:12.021Z,12.60
2023-04-24T20:58:16.890Z,12.60
2023-04-24T21:01:20.468Z,12.40
2023-04-24T21:04:23.859Z,12.30
2023-04-24T21:07:27.374Z,12.20
2023-04-24T21:10:30.703Z,12.00
2023-04-24T21:13:35.411Z,11.90
2023-04-24T21:16:39.376Z,11.70
2023-04-24T21:19:42.887Z,11.60
2023-04-24T21:22:46.682Z,11.60
2023-04-24T21:25:50.061Z,11.50
2023-04-24T21:28:55.041Z,11.50
2023-04-24T21:31:58.380Z,11.50
2023-04-24T21:35:01.742Z,11.50
2023-04-24T21:38:05.089Z,11.50
2023-04-24T21:41:08.504Z,11.50
2023-04-24T21:44:13.196Z,11.50
2023-04-24T21:47:16.635Z,11.60
2023-04-24T21:50:20.172Z,11.70
2023-04-24T21:53:23.758Z,11.70
2023-04-24T21:56:27.437Z,11.80
2023-04-24T21:59:32.463Z,11.70
2023-04-24T22:02:36.439Z,11.70
2023-04-24T22:05:39.908Z,11.70
2023-04-24T22:08:47.299Z,11.60
2023-04-24T22:11:51.007Z,11.60
2023-04-24T22:14:56.014Z,11.50
2023-04-24T22:18:01.220Z,11.40
2023-04-24T22:21:05.329Z,11.30
2023-04-24T22:24:08.984Z,11.20
2023-04-24T22:27:12.349Z,11.10
2023-04-24T22:30:17.175Z,11.30
2023-04-24T22:33:20.585Z,11.20
2023-04-24T22:36:23.918Z,11.00
2023-04-24T22:39:27.175Z,11.00
2023-04-24T22:42:30.798Z,11.10
2023-04-24T22:45:36.063Z,11.20
2023-04-24T22:48:39.420Z,11.40
2023-04-24T22:51:42.810Z,11.40
2023-04-24T22:54:46.078Z,11.60
2023-04-24T22:57:49.972Z,11.60
2023-04-24T23:00:54.654Z,11.60
2023-04-24T23:03:58.104Z,11.50
2023-04-24T23:07:01.604Z,11.50
2023-04-24T23:10:06.117Z,11.40
2023-04-24T23:13:09.408Z,11.40
2023-04-24T23:16:14.159Z,11.30
2023-04-24T23:19:17.612Z,11.30
2023-04-24T23:22:20.916Z,11.30
2023-04-24T23:25:24.213Z,11.30
2023-04-24T23:28:27.814Z,11.40
2023-04-24T23:31:32.476Z,11.50
2023-04-24T23:34:39.218Z,11.70
2023-04-24T23:37:42.601Z,11.80
2023-04-24T23:40:45.859Z,11.70
2023-04-24T23:43:49.414Z,11.70
2023-04-24T23:46:54.240Z,11.60
2023-04-24T23:49:57.468Z,11.60
2023-04-24T23:53:00.857Z,11.50
2023-04-24T23:56:04.277Z,11.40
2023-04-24T23:59:07.506Z,11.20
